createdAt,value
2022-10-17T00:01:14.676Z,3.28
2022-10-17T00:03:43.210Z,3.30
2022-10-17T00:06:14.819Z,3.95
2022-10-17T00:08:44.303Z,3.45
2022-10-17T00:11:19.540Z,2.90
2022-10-17T00:13:50.881Z,3.40
2022-10-17T00:16:28.039Z,4.18
2022-10-17T00:18:57.608Z,2.95
2022-10-17T00:21:26.847Z,2.83
2022-10-17T00:23:55.345Z,2.95
2022-10-17T00:26:24.271Z,2.85
2022-10-17T00:28:53.318Z,3.13
2022-10-17T00:31:23.083Z,3.10
2022-10-17T00:33:52.240Z,2.40
2022-10-17T00:36:26.415Z,2.40
2022-10-17T00:38:57.921Z,3.05
2022-10-17T00:41:30.407Z,3.00
2022-10-17T00:44:25.009Z,2.97
2022-10-17T00:46:53.337Z,2.92
2022-10-17T00:49:26.740Z,3.60
2022-10-17T00:52:02.305Z,3.53
2022-10-17T00:54:34.171Z,3.70
2022-10-17T00:57:04.086Z,3.47
2022-10-17T00:59:39.009Z,3.85
2022-10-17T01:02:11.290Z,3.75
2022-10-17T01:04:44.417Z,3.92
2022-10-17T01:07:14.239Z,3.80
2022-10-17T01:09:45.240Z,4.03
2022-10-17T01:12:41.206Z,3.42
2022-10-17T01:15:17.461Z,3.97
2022-10-17T01:17:45.810Z,3.50
2022-10-17T01:20:56.834Z,3.17
2022-10-17T01:26:27.344Z,3.33
2022-10-17T01:29:42.905Z,3.63
2022-10-17T01:32:14.940Z,3.58
2022-10-17T01:34:46.730Z,3.95
2022-10-17T01:37:22.747Z,3.60
2022-10-17T01:40:08.385Z,3.70
2022-10-17T01:42:51.757Z,3.50
2022-10-17T01:45:27.393Z,4.05
2022-10-17T01:47:58.294Z,3.65
2022-10-17T01:50:36.286Z,4.38
2022-10-17T01:53:19.748Z,4.28
2022-10-17T01:55:51.361Z,4.47
2022-10-17T01:58:27.723Z,5.30
2022-10-17T02:01:01.195Z,4.50
2022-10-17T02:03:35.280Z,4.20
2022-10-17T02:08:47.476Z,4.63
2022-10-17T02:11:20.662Z,3.92
2022-10-17T02:14:15.659Z,3.78
2022-10-17T02:17:03.418Z,4.30
2022-10-17T02:20:09.423Z,4.50
2022-10-17T02:22:52.319Z,4.10
2022-10-17T02:25:34.007Z,4.72
2022-10-17T02:28:21.043Z,4.07
2022-10-17T02:31:07.631Z,4.45
2022-10-17T02:33:44.449Z,4.38
2022-10-17T02:36:19.219Z,4.97
2022-10-17T02:38:49.378Z,4.72
2022-10-17T02:41:20.306Z,4.95
2022-10-17T02:43:50.231Z,4.82
2022-10-17T02:46:21.929Z,5.20
2022-10-17T02:49:07.644Z,5.55
2022-10-17T02:51:47.399Z,5.30
2022-10-17T02:54:32.501Z,4.70
2022-10-17T02:57:08.880Z,5.07
2022-10-17T02:59:41.522Z,5.65
2022-10-17T03:02:10.040Z,4.65
2022-10-17T03:04:38.518Z,5.57
2022-10-17T03:07:06.955Z,5.43
2022-10-17T03:09:35.306Z,5.20
2022-10-17T03:12:04.035Z,5.60
2022-10-17T03:14:32.795Z,5.78
2022-10-17T03:17:01.352Z,5.75
2022-10-17T03:19:29.887Z,6.07
2022-10-17T03:21:58.254Z,6.38
2022-10-17T03:24:28.679Z,6.13
2022-10-17T03:26:56.991Z,5.80
2022-10-17T03:29:27.164Z,5.72
2022-10-17T03:31:56.011Z,6.90
2022-10-17T03:34:24.769Z,5.40
2022-10-17T03:36:53.554Z,6.10
2022-10-17T03:39:21.898Z,6.78
2022-10-17T03:41:50.228Z,6.28
2022-10-17T03:44:19.878Z,6.88
2022-10-17T03:46:48.430Z,6.57
2022-10-17T03:49:16.948Z,7.55
2022-10-17T03:51:45.534Z,6.90
2022-10-17T03:54:16.557Z,6.32
2022-10-17T03:56:45.153Z,6.43
2022-10-17T03:59:16.942Z,7.40
2022-10-17T04:01:52.527Z,6.95
2022-10-17T04:04:23.609Z,7.55
2022-10-17T04:06:52.175Z,7.15
2022-10-17T04:09:21.887Z,7.32
2022-10-17T04:11:57.147Z,8.80
2022-10-17T04:14:26.400Z,7.90
2022-10-17T04:16:56.025Z,7.88
2022-10-17T04:19:25.866Z,8.00
2022-10-17T04:21:54.775Z,7.80
2022-10-17T04:24:24.503Z,7.70
2022-10-17T04:27:13.146Z,7.68
2022-10-17T04:29:45.736Z,8.55
2022-10-17T04:32:26.248Z,8.40
2022-10-17T04:35:02.875Z,7.72
2022-10-17T04:37:31.313Z,8.68
2022-10-17T04:40:02.834Z,9.60
2022-10-17T04:42:34.021Z,7.88
2022-10-17T04:45:18.728Z,8.80
2022-10-17T04:47:51.600Z,8.98
2022-10-17T04:50:19.959Z,9.00
2022-10-17T04:53:06.469Z,9.77
2022-10-17T04:55:38.593Z,8.95
2022-10-17T04:58:07.157Z,9.27
2022-10-17T05:00:46.630Z,9.45
2022-10-17T05:03:24.550Z,10.88
2022-10-17T05:05:52.983Z,11.07
2022-10-17T05:08:21.645Z,9.88
2022-10-17T05:10:49.963Z,9.43
2022-10-17T05:13:18.870Z,9.63
2022-10-17T05:15:47.370Z,9.50
2022-10-17T05:18:17.507Z,9.95
2022-10-17T05:20:46.277Z,9.90
2022-10-17T05:23:15.723Z,10.77
2022-10-17T05:25:45.801Z,10.45
2022-10-17T05:28:14.080Z,10.75
2022-10-17T05:30:44.101Z,11.35
2022-10-17T05:33:14.437Z,11.20
2022-10-17T05:35:49.517Z,11.02
2022-10-17T05:38:22.404Z,10.70
2022-10-17T05:40:51.859Z,10.45
2022-10-17T05:43:20.232Z,9.80
2022-10-17T05:45:49.884Z,11.30
2022-10-17T05:48:22.115Z,11.23
2022-10-17T05:50:50.418Z,10.98
2022-10-17T05:53:19.134Z,11.68
2022-10-17T05:56:02.349Z,11.23
2022-10-17T05:58:51.623Z,11.10
2022-10-17T06:01:34.676Z,11.65
2022-10-17T06:04:03.150Z,12.82
2022-10-17T06:06:31.489Z,13.70
2022-10-17T06:08:59.981Z,12.52
2022-10-17T06:11:35.442Z,11.77
2022-10-17T06:14:04.092Z,11.93
2022-10-17T06:16:32.680Z,12.23
2022-10-17T06:19:01.812Z,11.77
2022-10-17T06:21:34.353Z,12.80
2022-10-17T06:24:11.377Z,11.75
2022-10-17T06:26:42.766Z,11.95
2022-10-17T06:29:15.289Z,10.73
2022-10-17T06:31:55.886Z,11.38
2022-10-17T06:34:24.695Z,11.98
2022-10-17T06:36:53.446Z,12.68
2022-10-17T06:39:22.697Z,12.07
2022-10-17T06:41:58.683Z,11.18
2022-10-17T06:44:41.498Z,12.27
2022-10-17T06:47:26.461Z,12.60
2022-10-17T06:49:58.761Z,12.15
2022-10-17T06:52:40.723Z,12.32
2022-10-17T06:55:33.229Z,12.50
2022-10-17T06:58:39.220Z,12.63
2022-10-17T07:01:27.099Z,12.35
2022-10-17T07:03:59.909Z,12.32
2022-10-17T07:06:30.200Z,11.88
2022-10-17T07:09:03.182Z,13.15
2022-10-17T07:11:31.739Z,13.30
2022-10-17T07:14:00.135Z,13.20
2022-10-17T07:16:28.626Z,12.10
2022-10-17T07:19:17.229Z,12.88
2022-10-17T07:21:45.636Z,12.88
2022-10-17T07:24:14.384Z,12.82
2022-10-17T07:26:48.545Z,13.55
2022-10-17T07:29:17.350Z,13.48
2022-10-17T07:31:53.462Z,13.18
2022-10-17T07:34:21.854Z,13.35
2022-10-17T07:36:52.082Z,13.13
2022-10-17T07:39:20.763Z,11.85
2022-10-17T07:41:50.937Z,12.90
2022-10-17T07:44:23.946Z,12.55
2022-10-17T07:46:53.980Z,13.18
2022-10-17T07:49:22.292Z,12.43
2022-10-17T07:51:50.884Z,12.60
2022-10-17T07:54:19.232Z,13.52
2022-10-17T07:56:50.562Z,12.93
2022-10-17T07:59:19.532Z,12.65
2022-10-17T08:01:49.175Z,13.18
2022-10-17T08:04:17.804Z,12.40
2022-10-17T08:06:46.473Z,12.25
2022-10-17T08:09:14.737Z,12.32
2022-10-17T08:11:46.787Z,12.07
2022-10-17T08:14:16.779Z,12.10
2022-10-17T08:16:47.250Z,11.50
2022-10-17T08:19:18.649Z,10.32
2022-10-17T08:21:47.117Z,9.60
2022-10-17T08:24:15.454Z,10.68
2022-10-17T08:26:46.154Z,9.02
2022-10-17T08:29:17.114Z,10.05
2022-10-17T08:31:47.868Z,9.13
2022-10-17T08:34:17.420Z,9.10
2022-10-17T08:36:45.738Z,8.60
2022-10-17T08:39:14.042Z,9.10
2022-10-17T08:41:54.765Z,9.45
2022-10-17T08:47:16.508Z,9.18
2022-10-17T08:49:58.527Z,8.88
2022-10-17T08:52:40.825Z,8.20
2022-10-17T08:55:34.072Z,8.38
2022-10-17T08:58:02.430Z,8.43
2022-10-17T09:00:32.749Z,8.40
2022-10-17T09:03:12.520Z,9.82
2022-10-17T09:06:10.730Z,7.50
2022-10-17T09:09:14.530Z,8.55
2022-10-17T09:11:55.270Z,8.85
2022-10-17T09:14:35.404Z,8.20
2022-10-17T09:17:03.750Z,9.25
2022-10-17T09:19:43.717Z,9.05
2022-10-17T09:22:25.056Z,8.63
2022-10-17T09:25:00.614Z,7.93
2022-10-17T09:27:49.899Z,8.80
2022-10-17T09:30:50.784Z,7.72
2022-10-17T09:36:29.597Z,14.23
2022-10-17T09:39:05.249Z,7.75
2022-10-17T09:41:46.848Z,8.10
2022-10-17T09:44:25.411Z,8.00
2022-10-17T09:46:53.668Z,7.85
2022-10-17T09:49:32.699Z,7.40
2022-10-17T09:52:03.487Z,6.90
2022-10-17T09:54:49.723Z,7.93
2022-10-17T09:57:19.889Z,7.60
2022-10-17T10:00:01.017Z,7.78
2022-10-17T10:02:33.705Z,7.45
2022-10-17T10:05:06.106Z,6.82
2022-10-17T10:07:38.395Z,7.88
2022-10-17T10:10:22.916Z,7.20
2022-10-17T10:13:16.027Z,7.97
2022-10-17T10:15:48.870Z,8.65
2022-10-17T10:18:23.306Z,7.70
2022-10-17T10:21:10.221Z,8.27
2022-10-17T10:23:44.754Z,8.15
2022-10-17T10:26:26.039Z,8.02
2022-10-17T10:29:20.046Z,8.13
2022-10-17T10:31:51.981Z,7.90
2022-10-17T10:34:27.941Z,7.95
2022-10-17T10:37:05.925Z,8.80
2022-10-17T10:39:49.880Z,9.13
2022-10-17T10:42:27.405Z,9.57
2022-10-17T10:45:02.394Z,9.07
2022-10-17T10:47:32.655Z,10.05
2022-10-17T10:53:31.688Z,9.85
2022-10-17T10:56:24.445Z,11.05
2022-10-17T10:59:05.102Z,10.57
2022-10-17T11:04:18.019Z,11.18
2022-10-17T11:06:47.949Z,11.55
2022-10-17T11:09:24.780Z,12.05
2022-10-17T11:12:05.206Z,12.05
2022-10-17T11:14:45.289Z,12.27
2022-10-17T11:17:20.046Z,13.07
2022-10-17T11:20:01.640Z,11.60
2022-10-17T11:25:24.918Z,12.25
2022-10-17T11:27:53.242Z,12.65
2022-10-17T11:30:26.315Z,13.00
2022-10-17T11:33:02.746Z,13.88
2022-10-17T11:35:38.012Z,13.77
2022-10-17T11:39:02.267Z,12.85
2022-10-17T11:41:43.108Z,14.65
2022-10-17T11:44:25.285Z,14.05
2022-10-17T11:47:03.120Z,13.23
2022-10-17T11:49:41.000Z,14.27
2022-10-17T11:52:37.821Z,13.65
2022-10-17T11:55:30.477Z,12.68
2022-10-17T11:58:47.390Z,13.40
2022-10-17T12:01:17.302Z,14.23
2022-10-17T12:04:07.603Z,12.68
2022-10-17T12:07:06.976Z,12.38
2022-10-17T12:09:41.910Z,14.77
2022-10-17T12:12:10.343Z,14.25
2022-10-17T12:14:45.084Z,14.35
2022-10-17T12:17:23.544Z,15.52
2022-10-17T12:19:51.990Z,14.90
2022-10-17T12:22:28.694Z,14.15
2022-10-17T12:25:00.145Z,14.50
2022-10-17T12:27:43.588Z,12.02
2022-10-17T12:30:11.773Z,12.40
2022-10-17T12:33:05.682Z,11.30
2022-10-17T12:35:36.603Z,9.02
2022-10-17T12:38:17.265Z,9.35
2022-10-17T12:40:49.036Z,9.73
2022-10-17T12:43:17.575Z,10.98
2022-10-17T12:45:59.487Z,10.50
2022-10-17T12:48:34.042Z,9.90
2022-10-17T12:51:34.296Z,10.50
2022-10-17T12:54:13.005Z,10.68
2022-10-17T12:56:49.603Z,11.20
2022-10-17T12:59:22.531Z,10.95
2022-10-17T13:02:00.025Z,10.68
2022-10-17T13:04:30.107Z,10.88
2022-10-17T13:07:03.844Z,11.13
2022-10-17T13:09:37.689Z,11.63
2022-10-17T13:12:23.535Z,10.32
2022-10-17T13:14:54.025Z,10.20
2022-10-17T13:17:31.739Z,9.65
2022-10-17T13:20:00.770Z,8.88
2022-10-17T13:22:32.363Z,8.02
2022-10-17T13:25:16.261Z,8.93
2022-10-17T13:27:45.644Z,7.93
2022-10-17T13:30:27.994Z,7.68
2022-10-17T13:33:00.408Z,7.90
2022-10-17T13:35:55.715Z,8.00
2022-10-17T13:38:28.785Z,7.03
2022-10-17T13:41:16.527Z,7.75
2022-10-17T13:43:50.423Z,6.30
2022-10-17T13:46:37.936Z,6.80
2022-10-17T13:49:18.727Z,6.07
2022-10-17T13:51:50.914Z,6.93
2022-10-17T13:54:40.703Z,6.47
2022-10-17T13:57:31.972Z,6.80
2022-10-17T14:00:18.989Z,5.65
2022-10-17T14:02:48.512Z,5.40
2022-10-17T14:05:20.528Z,5.70
2022-10-17T14:08:11.156Z,6.75
2022-10-17T14:10:43.085Z,5.60
2022-10-17T14:13:22.682Z,4.60
2022-10-17T14:15:52.851Z,4.72
2022-10-17T14:18:25.353Z,4.28
2022-10-17T14:23:44.305Z,4.47
2022-10-17T14:26:17.221Z,4.50
2022-10-17T14:28:49.000Z,4.45
2022-10-17T14:31:25.713Z,4.50
2022-10-17T14:33:57.766Z,4.63
2022-10-17T14:36:37.145Z,4.65
2022-10-17T14:39:13.372Z,4.68
2022-10-17T14:41:46.092Z,5.07
2022-10-17T14:44:17.498Z,4.53
2022-10-17T14:46:50.900Z,3.88
2022-10-17T14:49:38.509Z,4.72
2022-10-17T14:52:33.878Z,4.00
2022-10-17T14:55:24.900Z,4.25
2022-10-17T15:00:23.141Z,3.55
2022-10-17T15:02:54.117Z,3.65
2022-10-17T15:05:23.625Z,3.45
2022-10-17T15:07:52.067Z,2.88
2022-10-17T15:10:26.462Z,3.20
2022-10-17T15:12:59.212Z,2.85
2022-10-17T15:15:33.323Z,3.17
2022-10-17T15:18:01.883Z,3.20
2022-10-17T15:20:30.780Z,3.22
2022-10-17T15:23:00.893Z,3.13
2022-10-17T15:25:31.209Z,3.35
2022-10-17T15:27:59.480Z,2.63
2022-10-17T15:30:32.226Z,2.90
2022-10-17T15:33:00.671Z,3.10
2022-10-17T15:35:29.352Z,3.38
2022-10-17T15:37:57.814Z,2.80
2022-10-17T15:40:29.295Z,2.80
2022-10-17T15:42:57.982Z,2.90
2022-10-17T15:45:26.294Z,3.08
2022-10-17T15:48:04.553Z,3.22
2022-10-17T15:50:33.326Z,3.03
2022-10-17T15:53:05.644Z,2.92
2022-10-17T15:55:35.664Z,3.63
2022-10-17T15:58:04.114Z,2.90
2022-10-17T16:00:32.683Z,2.60
2022-10-17T16:03:01.638Z,3.92
2022-10-17T16:05:30.278Z,3.65
2022-10-17T16:07:58.812Z,3.38
2022-10-17T16:10:27.638Z,3.20
2022-10-17T16:12:56.300Z,3.42
2022-10-17T16:15:28.043Z,3.60
2022-10-17T16:18:00.518Z,3.30
2022-10-17T16:20:32.119Z,3.63
2022-10-17T16:23:03.122Z,3.22
2022-10-17T16:25:32.441Z,3.45
2022-10-17T16:28:01.508Z,3.63
2022-10-17T16:30:31.845Z,3.58
2022-10-17T16:33:00.146Z,4.13
2022-10-17T16:35:33.308Z,3.80
2022-10-17T16:38:07.488Z,3.30
2022-10-17T16:40:39.025Z,3.88
2022-10-17T16:43:12.183Z,3.88
2022-10-17T16:45:41.221Z,3.63
2022-10-17T16:48:09.867Z,3.10
2022-10-17T16:50:41.296Z,3.50
2022-10-17T16:53:09.626Z,3.00
2022-10-17T16:55:38.341Z,2.97
2022-10-17T16:58:07.133Z,3.85
2022-10-17T17:00:36.888Z,3.97
2022-10-17T17:03:06.259Z,3.30
2022-10-17T17:05:34.864Z,3.00
2022-10-17T17:08:04.034Z,3.35
2022-10-17T17:10:32.442Z,2.70
2022-10-17T17:13:03.265Z,3.30
2022-10-17T17:15:31.538Z,3.30
2022-10-17T17:18:04.821Z,3.45
2022-10-17T17:20:34.111Z,3.00
2022-10-17T17:23:02.424Z,3.55
2022-10-17T17:25:30.875Z,3.72
2022-10-17T17:28:02.812Z,3.88
2022-10-17T17:30:33.382Z,3.65
2022-10-17T17:35:32.397Z,4.00
2022-10-17T17:38:03.454Z,3.53
2022-10-17T17:40:34.650Z,4.28
2022-10-17T17:43:03.433Z,4.35
2022-10-17T17:45:31.750Z,5.13
2022-10-17T17:48:00.295Z,4.10
2022-10-17T17:50:28.665Z,4.63
2022-10-17T17:52:56.928Z,4.55
2022-10-17T17:55:25.181Z,4.50
2022-10-17T17:57:57.571Z,4.80
2022-10-17T18:00:26.683Z,4.93
2022-10-17T18:02:56.610Z,5.07
2022-10-17T18:05:31.604Z,4.47
2022-10-17T18:08:00.158Z,5.38
2022-10-17T18:10:29.542Z,5.38
2022-10-17T18:12:57.847Z,5.72
2022-10-17T18:15:29.421Z,5.47
2022-10-17T18:17:57.984Z,5.75
2022-10-17T18:20:27.779Z,7.15
2022-10-17T18:23:04.189Z,7.78
2022-10-17T18:25:38.761Z,6.78
2022-10-17T18:28:09.131Z,7.32
2022-10-17T18:30:38.843Z,8.43
2022-10-17T18:33:07.268Z,7.20
2022-10-17T18:35:35.837Z,8.40
2022-10-17T18:38:04.494Z,7.97
2022-10-17T18:40:40.694Z,7.65
2022-10-17T18:43:11.835Z,8.75
2022-10-17T18:45:40.322Z,8.23
2022-10-17T18:48:09.991Z,8.02
2022-10-17T18:50:39.273Z,8.60
2022-10-17T18:53:09.187Z,8.90
2022-10-17T18:55:39.795Z,9.20
2022-10-17T18:58:08.679Z,10.40
2022-10-17T19:00:39.789Z,9.95
2022-10-17T19:03:08.793Z,10.23
2022-10-17T19:05:41.363Z,10.50
2022-10-17T19:08:09.730Z,9.13
2022-10-17T19:10:38.306Z,10.20
2022-10-17T19:13:06.788Z,11.15
2022-10-17T19:15:35.214Z,10.80
2022-10-17T19:18:05.001Z,11.25
2022-10-17T19:20:33.427Z,12.83
2022-10-17T19:23:01.835Z,12.68
2022-10-17T19:25:30.785Z,13.13
2022-10-17T19:27:59.307Z,11.10
2022-10-17T19:30:28.406Z,12.90
2022-10-17T19:32:57.163Z,12.55
2022-10-17T19:35:25.444Z,13.55
2022-10-17T19:37:53.965Z,14.60
2022-10-17T19:40:22.264Z,12.50
2022-10-17T19:42:50.606Z,11.93
2022-10-17T19:45:18.922Z,12.80
2022-10-17T19:47:47.163Z,11.80
2022-10-17T19:50:15.725Z,14.18
2022-10-17T19:52:44.140Z,13.70
2022-10-17T19:55:12.900Z,14.88
2022-10-17T19:57:41.290Z,13.20
2022-10-17T20:00:09.969Z,16.60
2022-10-17T20:02:44.803Z,14.93
2022-10-17T20:05:18.486Z,13.82
2022-10-17T20:07:47.692Z,13.32
2022-10-17T20:10:18.660Z,14.57
2022-10-17T20:12:48.150Z,14.75
2022-10-17T20:15:16.543Z,14.68
2022-10-17T20:17:45.003Z,14.98
2022-10-17T20:20:13.405Z,16.23
2022-10-17T20:22:41.781Z,16.02
2022-10-17T20:25:10.520Z,18.15
2022-10-17T20:27:39.627Z,19.55
2022-10-17T20:30:11.482Z,16.67
2022-10-17T20:32:39.826Z,18.40
2022-10-17T20:35:08.912Z,17.90
2022-10-17T20:37:41.613Z,20.08
2022-10-17T20:43:09.892Z,20.83
2022-10-17T20:45:50.801Z,19.17
2022-10-17T20:48:20.326Z,19.42
2022-10-17T20:50:49.776Z,20.58
2022-10-17T20:56:17.826Z,20.63
2022-10-17T20:58:54.027Z,18.50
2022-10-17T21:01:23.955Z,20.48
2022-10-17T21:03:52.807Z,18.17
2022-10-17T21:06:23.234Z,18.75
2022-10-17T21:08:56.324Z,20.33
2022-10-17T21:11:27.195Z,22.27
2022-10-17T21:13:58.673Z,19.65
2022-10-17T21:16:28.243Z,20.83
2022-10-17T21:18:57.728Z,20.27
2022-10-17T21:21:32.888Z,22.00
2022-10-17T21:24:04.853Z,22.20
2022-10-17T21:26:37.569Z,22.67
2022-10-17T21:29:07.223Z,21.65
2022-10-17T21:31:37.888Z,22.52
2022-10-17T21:36:39.050Z,23.40
2022-10-17T21:41:42.506Z,22.40
2022-10-17T21:44:15.234Z,22.20
2022-10-17T21:46:44.789Z,25.15
2022-10-17T21:49:15.075Z,22.70
2022-10-17T21:51:44.632Z,20.65
2022-10-17T21:54:13.884Z,19.67
2022-10-17T21:56:43.184Z,22.75
2022-10-17T21:59:13.052Z,24.45
2022-10-17T22:01:44.381Z,22.85
2022-10-17T22:04:18.352Z,25.25
2022-10-17T22:06:50.964Z,23.15
2022-10-17T22:09:26.505Z,25.55
2022-10-17T22:11:56.682Z,24.10
2022-10-17T22:14:27.125Z,21.65
2022-10-17T22:16:55.545Z,26.40
2022-10-17T22:19:26.484Z,24.23
2022-10-17T22:21:55.081Z,25.45
2022-10-17T22:24:23.854Z,25.80
2022-10-17T22:26:52.423Z,25.42
2022-10-17T22:29:20.940Z,27.85
2022-10-17T22:31:49.384Z,26.30
2022-10-17T22:34:18.410Z,25.27
2022-10-17T22:36:49.247Z,28.05
2022-10-17T22:39:17.683Z,26.77
2022-10-17T22:41:46.037Z,28.08
2022-10-17T22:44:14.852Z,28.58
2022-10-17T22:46:46.885Z,27.60
2022-10-17T22:49:15.333Z,28.48
2022-10-17T22:51:43.590Z,28.23
2022-10-17T22:54:11.908Z,27.80
2022-10-17T22:56:40.283Z,24.80
2022-10-17T22:59:08.836Z,24.42
2022-10-17T23:01:37.342Z,26.40
2022-10-17T23:04:05.730Z,23.05
2022-10-17T23:06:34.055Z,25.67
2022-10-17T23:09:03.187Z,24.48
2022-10-17T23:11:31.472Z,29.33
2022-10-17T23:13:59.836Z,27.98
2022-10-17T23:16:28.837Z,30.40
2022-10-17T23:18:58.037Z,29.95
2022-10-17T23:21:26.843Z,29.45
2022-10-17T23:23:55.090Z,32.47
2022-10-17T23:26:23.679Z,32.42
2022-10-17T23:28:54.998Z,30.23
2022-10-17T23:31:23.495Z,31.48
2022-10-17T23:33:51.789Z,30.90
2022-10-17T23:36:21.313Z,29.00
2022-10-17T23:38:51.798Z,30.05
2022-10-17T23:41:22.468Z,29.42
2022-10-17T23:43:52.751Z,28.30
2022-10-17T23:46:21.578Z,28.00
2022-10-17T23:48:50.073Z,29.92
2022-10-17T23:51:18.565Z,22.35
2022-10-17T23:53:46.863Z,29.05
2022-10-17T23:56:15.317Z,26.85
2022-10-17T23:58:43.706Z,24.98
